Time;durP1;ratioP1;P1;durP2;ratioP2;P2;SDS_P1;SDS_P2;PMS_P1;PMS_P2;Temp;Humidity;BMP_temperature;BMP_pressure;BME280_temperature;BME280_humidity;BME280_pressure;Samples;Min_cycle;Max_cycle;Signal;HPM_P1;HPM_P2
2022/09/16 00:02:25;;;;;;;7.40;6.77;;;;;;;10.24;100.00;100268.53;5053236;28;20489;-48
2022/09/16 00:04:53;;;;;;;7.30;6.60;;;;;;;10.18;100.00;100268.50;5053580;28;20879;-53
2022/09/16 00:07:21;;;;;;;8.03;6.40;;;;;;;10.15;100.00;100272.41;5053519;28;20431;-51
2022/09/16 00:09:48;;;;;;;7.60;7.07;;;;;;;10.12;100.00;100266.63;5053182;28;20478;-49
2022/09/16 00:12:17;;;;;;;10.23;6.80;;;;;;;10.10;100.00;100268.66;5053351;28;20447;-52
2022/09/16 00:14:45;;;;;;;7.70;7.20;;;;;;;10.07;100.00;100271.75;5053523;28;20447;-51
2022/09/16 00:17:12;;;;;;;9.07;8.13;;;;;;;10.05;100.00;100277.28;5053426;28;20493;-52
2022/09/16 00:19:40;;;;;;;12.67;7.50;;;;;;;9.99;100.00;100264.78;5052808;28;20879;-52
2022/09/16 00:22:08;;;;;;;8.20;7.40;;;;;;;9.99;100.00;100270.09;5053113;28;20545;-52
2022/09/16 00:24:35;;;;;;;16.47;8.80;;;;;;;9.96;100.00;100267.84;5053363;28;20435;-49
2022/09/16 00:27:03;;;;;;;10.23;8.30;;;;;;;9.92;100.00;100269.28;5053229;28;20489;-53
2022/09/16 00:29:32;;;;;;;9.57;8.67;;;;;;;9.91;100.00;100271.13;5052771;28;20809;-49
2022/09/16 00:32:00;;;;;;;9.53;8.30;;;;;;;9.90;100.00;100269.50;5052875;28;20510;-50
2022/09/16 00:34:27;;;;;;;12.43;8.60;;;;;;;9.88;100.00;100270.72;5052503;28;20431;-52
2022/09/16 00:36:55;;;;;;;10.23;8.80;;;;;;;9.84;100.00;100272.13;5053050;28;20489;-53
2022/09/16 00:39:22;;;;;;;9.93;7.90;;;;;;;9.83;100.00;100267.81;5052671;28;20525;-50
2022/09/16 00:41:50;;;;;;;14.67;8.33;;;;;;;9.86;100.00;100267.41;5052814;28;20625;-53
2022/09/16 00:44:55;;;;;;;9.77;8.87;;;;;;;9.83;100.00;100262.50;5052674;28;20577;-50
2022/09/16 00:47:26;;;;;;;8.90;8.40;;;;;;;9.82;100.00;100260.88;5052963;28;20431;-50
2022/09/16 00:49:59;;;;;;;9.60;8.67;;;;;;;9.81;100.00;100264.56;5052408;28;20520;-50
2022/09/16 00:52:28;;;;;;;9.87;9.20;;;;;;;9.76;100.00;100259.03;5052390;28;20443;-49
2022/09/16 00:54:57;;;;;;;8.83;8.20;;;;;;;9.75;100.00;100268.84;5052050;28;20435;-47
2022/09/16 00:57:25;;;;;;;9.83;9.00;;;;;;;9.72;100.00;100265.78;5051411;28;20434;-51
2022/09/16 00:59:55;;;;;;;14.90;9.17;;;;;;;9.66;100.00;100267.41;5050766;28;20489;-52
2022/09/16 01:02:24;;;;;;;10.37;9.07;;;;;;;9.63;100.00;100265.16;5050750;28;20516;-51
2022/09/16 01:04:55;;;;;;;10.70;9.53;;;;;;;9.64;100.00;100265.97;5051016;28;20928;-50
2022/09/16 01:07:31;;;;;;;9.87;9.07;;;;;;;9.62;100.00;100274.16;5051028;28;20432;-49
2022/09/16 01:09:58;;;;;;;10.60;9.60;;;;;;;9.60;100.00;100265.56;5050487;28;20982;-50
2022/09/16 01:12:29;;;;;;;10.00;8.90;;;;;;;9.58;100.00;100266.78;5051883;28;21007;-53
2022/09/16 01:14:59;;;;;;;11.63;9.63;;;;;;;9.57;100.00;100267.78;5052417;28;20431;-50
2022/09/16 01:17:37;;;;;;;9.87;9.07;;;;;;;9.56;100.00;100266.16;5052203;28;20435;-48
2022/09/16 01:20:32;;;;;;;11.20;10.20;;;;;;;9.57;100.00;100267.78;5051635;28;20518;-52
2022/09/16 01:23:11;;;;;;;9.40;9.00;;;;;;;9.55;100.00;100269.84;5052140;28;20481;-49
2022/09/16 01:25:55;;;;;;;10.30;9.50;;;;;;;9.53;100.00;100266.56;5052218;28;20497;-51
2022/09/16 01:28:53;;;;;;;11.80;10.00;;;;;;;9.50;100.00;100261.66;5052028;28;20840;-50
2022/09/16 01:31:30;;;;;;;14.50;9.73;;;;;;;9.49;100.00;100260.00;5052038;28;20492;-46
2022/09/16 01:34:12;;;;;;;10.70;9.90;;;;;;;9.48;100.00;100269.81;5051847;28;20427;-49
2022/09/16 01:36:48;;;;;;;10.73;9.73;;;;;;;9.48;100.00;100264.50;5051828;28;20431;-51
2022/09/16 01:39:27;;;;;;;11.00;10.03;;;;;;;9.54;100.00;100284.16;5051476;28;20481;-49
2022/09/16 01:42:08;;;;;;;15.73;10.93;;;;;;;9.61;100.00;100266.38;5051881;28;20474;-51
2022/09/16 01:44:44;;;;;;;13.43;10.70;;;;;;;9.74;100.00;100269.88;5051143;28;20493;-47
2022/09/16 01:47:20;;;;;;;11.33;10.53;;;;;;;9.88;100.00;100258.22;5051702;28;20431;-49
2022/09/16 01:50:00;;;;;;;12.80;10.07;;;;;;;9.95;100.00;100256.38;5051460;28;20482;-51
2022/09/16 01:52:38;;;;;;;12.60;11.17;;;;;;;10.03;100.00;100256.16;5048407;28;20472;-52
2022/09/16 01:55:09;;;;;;;13.07;11.70;;;;;;;10.05;100.00;100249.81;5051620;28;20431;-50
2022/09/16 01:57:45;;;;;;;10.97;10.30;;;;;;;10.09;100.00;100259.06;5051676;28;20431;-48
2022/09/16 02:00:14;;;;;;;12.53;11.43;;;;;;;10.10;100.00;100252.69;5051413;28;20517;-50
2022/09/16 02:02:48;;;;;;;11.83;10.80;;;;;;;10.08;100.00;100252.06;5051451;28;20501;-47
2022/09/16 02:05:20;;;;;;;11.50;10.60;;;;;;;10.06;100.00;100254.97;5051834;28;20846;-51
2022/09/16 02:07:52;;;;;;;11.03;10.10;;;;;;;10.02;100.00;100265.19;5051600;28;20427;-46
2022/09/16 02:10:24;;;;;;;10.37;9.53;;;;;;;9.98;100.00;100260.47;5051182;28;20513;-51
2022/09/16 02:12:55;;;;;;;12.37;10.63;;;;;;;9.98;100.00;100261.28;5051318;28;20979;-48
2022/09/16 02:15:26;;;;;;;12.67;9.83;;;;;;;10.01;100.00;100260.06;5051648;28;20435;-47
2022/09/16 02:18:01;;;;;;;10.50;9.60;;;;;;;10.08;100.00;100257.41;5048800;28;20435;-46
2022/09/16 02:20:31;;;;;;;16.57;10.80;;;;;;;10.09;100.00;100251.88;5049849;28;20578;-49
2022/09/16 02:23:04;;;;;;;11.70;10.60;;;;;;;10.07;100.00;100240.59;5051047;28;20992;-50
2022/09/16 02:25:34;;;;;;;10.87;10.10;;;;;;;10.08;100.00;100242.25;5051583;28;20439;-47
2022/09/16 02:28:06;;;;;;;10.47;9.63;;;;;;;10.06;100.00;100236.31;5051393;28;21002;-51
2022/09/16 02:30:35;;;;;;;12.43;10.53;;;;;;;10.06;100.00;100232.81;5051019;28;20462;-49
2022/09/16 02:33:09;;;;;;;11.20;10.20;;;;;;;10.02;100.00;100237.72;5051092;28;20505;-50
2022/09/16 02:35:39;;;;;;;17.70;10.00;;;;;;;9.99;100.00;100243.47;5051576;28;20435;-50
2022/09/16 02:38:12;;;;;;;10.43;9.70;;;;;;;9.97;100.00;100242.88;5051487;28;20843;-49
2022/09/16 02:40:45;;;;;;;11.53;10.57;;;;;;;9.97;100.00;100233.00;5050721;28;20471;-50
2022/09/16 02:43:13;;;;;;;11.70;10.00;;;;;;;9.96;100.00;100225.22;5051004;28;20470;-49
2022/09/16 02:45:49;;;;;;;10.83;9.83;;;;;;;9.93;100.00;100217.66;5051170;28;20443;-51
2022/09/16 02:48:27;;;;;;;12.70;10.93;;;;;;;9.93;100.00;100226.47;5051443;28;20489;-51
2022/09/16 02:51:05;;;;;;;10.70;9.87;;;;;;;9.92;100.00;100219.50;5050750;28;20550;-52
2022/09/16 02:53:42;;;;;;;10.57;9.63;;;;;;;9.92;100.00;100224.00;5047585;28;20419;-54
2022/09/16 02:56:17;;;;;;;11.53;10.40;;;;;;;9.92;100.00;100229.31;5052622;28;20449;-54
2022/09/16 02:58:45;;;;;;;10.17;9.47;;;;;;;9.91;100.00;100233.03;5055101;28;20839;-49
2022/09/16 03:01:14;;;;;;;12.40;9.87;;;;;;;9.90;100.00;100226.06;5054150;28;20533;-51
2022/09/16 03:03:43;;;;;;;14.10;10.03;;;;;;;9.87;100.00;100221.97;5054589;28;20470;-54
2022/09/16 03:06:16;;;;;;;13.07;9.30;;;;;;;9.88;100.00;100228.13;5054658;28;20439;-51
2022/09/16 03:08:45;;;;;;;10.07;9.30;;;;;;;9.86;100.00;100225.63;5054900;28;20493;-51
2022/09/16 03:11:23;;;;;;;12.50;9.03;;;;;;;9.83;100.00;100225.22;5054073;28;20517;-53
2022/09/16 03:14:11;;;;;;;10.43;9.57;;;;;;;9.82;100.00;100223.59;5054428;28;20450;-54
2022/09/16 03:16:51;;;;;;;10.97;9.30;;;;;;;9.81;100.00;100224.63;5054524;28;20484;-54
2022/09/16 03:19:26;;;;;;;10.97;9.93;;;;;;;9.83;100.00;100225.22;5054256;28;20485;-49
2022/09/16 03:22:01;;;;;;;12.27;9.90;;;;;;;9.81;100.00;100228.09;5054462;28;20470;-50
2022/09/16 03:24:38;;;;;;;10.00;9.10;;;;;;;9.85;100.00;100225.84;5054351;28;20435;-50
2022/09/16 03:27:10;;;;;;;13.63;9.57;;;;;;;9.85;100.00;100223.19;5054351;28;20490;-53
2022/09/16 03:29:42;;;;;;;11.00;9.50;;;;;;;9.85;100.00;100218.69;5054047;28;20455;-49
2022/09/16 03:32:20;;;;;;;21.50;10.03;;;;;;;9.88;100.00;100228.13;5054122;28;20486;-47
2022/09/16 03:34:52;;;;;;;11.03;8.60;;;;;;;9.93;100.00;100215.81;5054333;28;20435;-49
2022/09/16 03:37:22;;;;;;;11.23;10.50;;;;;;;9.93;100.00;100218.47;5054245;28;20431;-48
2022/09/16 03:39:52;;;;;;;11.80;9.50;;;;;;;9.92;100.00;100210.69;5053521;28;20996;-47
2022/09/16 03:42:21;;;;;;;10.70;9.47;;;;;;;9.87;100.00;100202.50;5053809;28;20482;-48
2022/09/16 03:44:49;;;;;;;10.00;9.20;;;;;;;9.81;100.00;100209.47;5053952;28;20514;-49
2022/09/16 03:47:17;;;;;;;10.53;9.43;;;;;;;9.74;100.00;100199.81;5053991;28;20847;-46
2022/09/16 03:49:45;;;;;;;9.63;9.10;;;;;;;9.69;100.00;100199.63;5053575;28;20584;-49
2022/09/16 03:52:16;;;;;;;13.47;10.23;;;;;;;9.65;100.00;100193.03;5053346;28;20509;-49
2022/09/16 03:54:43;;;;;;;10.80;9.87;;;;;;;9.62;100.00;100198.78;5052264;28;20800;-50
2022/09/16 03:57:11;;;;;;;10.17;9.47;;;;;;;9.61;100.00;100192.66;5053904;28;20439;-52
2022/09/16 03:59:40;;;;;;;12.83;10.30;;;;;;;9.60;100.00;100187.53;5053150;28;21049;-50
2022/09/16 04:02:07;;;;;;;11.77;10.50;;;;;;;9.60;100.00;100183.03;5052532;28;20463;-50
2022/09/16 04:04:35;;;;;;;10.67;9.77;;;;;;;9.59;100.00;100184.03;5052548;28;20435;-48
2022/09/16 04:07:03;;;;;;;10.40;9.50;;;;;;;9.61;100.00;100194.50;5053244;28;20431;-50
2022/09/16 04:09:32;;;;;;;11.80;10.70;;;;;;;9.63;100.00;100182.63;5053783;28;20466;-54
2022/09/16 04:11:59;;;;;;;10.30;9.70;;;;;;;9.64;100.00;100191.44;5053458;28;20455;-50
2022/09/16 04:14:27;;;;;;;13.30;9.73;;;;;;;9.68;100.00;100180.16;5053413;28;20828;-49
2022/09/16 04:16:55;;;;;;;10.60;9.60;;;;;;;9.74;100.00;100192.66;5053351;28;20431;-52
2022/09/16 04:19:23;;;;;;;10.57;9.67;;;;;;;9.81;100.00;100174.84;5052894;28;20855;-53
2022/09/16 04:21:50;;;;;;;21.57;12.07;;;;;;;9.90;100.00;100188.75;5053421;28;20451;-52
2022/09/16 04:24:18;;;;;;;10.43;9.40;;;;;;;9.91;100.00;100191.25;5053142;28;20523;-51
2022/09/16 04:26:47;;;;;;;12.03;10.90;;;;;;;9.99;100.00;100171.56;5053228;28;20432;-53
2022/09/16 04:29:14;;;;;;;11.67;10.37;;;;;;;10.08;100.00;100169.50;5052694;28;20462;-54
2022/09/16 04:31:42;;;;;;;17.33;11.37;;;;;;;10.11;100.00;100169.91;5052944;28;20451;-51
2022/09/16 04:34:11;;;;;;;11.53;10.50;;;;;;;10.12;100.00;100160.88;5053051;28;20481;-54
2022/09/16 04:36:39;;;;;;;11.53;10.33;;;;;;;10.09;100.00;100169.28;5053174;28;20436;-46
2022/09/16 04:39:07;;;;;;;12.17;11.03;;;;;;;10.07;100.00;100162.50;5052530;28;20427;-46
2022/09/16 04:41:35;;;;;;;12.13;10.93;;;;;;;10.02;100.00;100161.31;5052893;28;20439;-54
2022/09/16 04:44:04;;;;;;;12.37;11.23;;;;;;;10.01;100.00;100170.31;5052503;28;20983;-52
2022/09/16 04:46:32;;;;;;;12.23;11.00;;;;;;;9.98;100.00;100165.41;5052793;28;20431;-52
2022/09/16 04:49:00;;;;;;;12.60;10.97;;;;;;;9.99;100.00;100168.88;5052524;28;20433;-46
2022/09/16 04:51:28;;;;;;;15.00;11.13;;;;;;;10.00;100.00;100170.53;5052278;28;20563;-55
2022/09/16 04:53:57;;;;;;;16.27;11.67;;;;;;;10.02;100.00;100173.81;5049833;28;20428;-51
2022/09/16 04:56:26;;;;;;;12.00;11.00;;;;;;;10.04;100.00;100171.75;5052722;28;20431;-54
2022/09/16 04:58:58;;;;;;;17.43;10.83;;;;;;;10.07;100.00;100170.50;5051972;28;20508;-52
2022/09/16 05:01:28;;;;;;;10.87;10.33;;;;;;;10.08;100.00;100178.31;5052678;28;20455;-54
2022/09/16 05:03:59;;;;;;;13.27;11.20;;;;;;;10.07;100.00;100170.50;5052374;28;20510;-55
2022/09/16 05:06:28;;;;;;;11.03;9.90;;;;;;;10.07;100.00;100165.19;5052521;28;20435;-53
2022/09/16 05:08:57;;;;;;;14.80;10.53;;;;;;;10.05;100.00;100169.91;5051840;28;20489;-54
2022/09/16 05:11:26;;;;;;;10.73;9.50;;;;;;;10.06;100.00;100166.22;5052186;28;20447;-53
2022/09/16 05:13:54;;;;;;;10.97;10.00;;;;;;;10.06;100.00;100159.06;5051960;28;20920;-52
2022/09/16 05:16:23;;;;;;;10.77;9.93;;;;;;;10.10;100.00;100156.78;5052969;28;20431;-50
2022/09/16 05:18:55;;;;;;;15.83;10.80;;;;;;;10.13;100.00;100162.53;5051855;28;20431;-53
2022/09/16 05:21:25;;;;;;;12.83;10.10;;;;;;;10.16;100.00;100154.13;5052229;28;20451;-54
2022/09/16 05:23:54;;;;;;;13.70;11.27;;;;;;;10.25;100.00;100155.53;5051716;28;21153;-48
2022/09/16 05:26:24;;;;;;;16.63;12.63;;;;;;;10.33;100.00;100152.69;5052001;28;20431;-52
2022/09/16 05:28:53;;;;;;;13.17;11.97;;;;;;;10.43;100.00;100153.03;5051796;28;20427;-52
2022/09/16 05:31:22;;;;;;;12.00;11.13;;;;;;;10.51;100.00;100138.69;5052121;28;20451;-54
2022/09/16 05:33:56;;;;;;;12.77;11.80;;;;;;;10.57;100.00;100133.28;5051840;28;20879;-48
2022/09/16 05:36:24;;;;;;;12.20;11.17;;;;;;;10.64;100.00;100138.63;5051928;28;20420;-51
2022/09/16 05:38:52;;;;;;;14.57;12.47;;;;;;;10.71;100.00;100138.59;5051631;28;20427;-53
2022/09/16 05:41:40;;;;;;;12.23;11.30;;;;;;;10.91;100.00;100136.63;5051929;28;20487;-49
2022/09/16 05:44:07;;;;;;;12.37;11.57;;;;;;;10.94;100.00;100130.88;5051621;28;20470;-49
2022/09/16 05:46:36;;;;;;;12.53;11.37;;;;;;;10.97;100.00;100133.94;5051723;28;20489;-46
2022/09/16 05:49:05;;;;;;;12.73;11.53;;;;;;;10.99;100.00;100141.75;5051118;28;21021;-47
2022/09/16 05:51:32;;;;;;;12.27;11.20;;;;;;;11.01;100.00;100143.16;5051699;28;20451;-48
2022/09/16 05:54:00;;;;;;;12.17;10.97;;;;;;;11.08;100.00;100143.09;5051447;28;20436;-51
2022/09/16 05:56:30;;;;;;;12.13;11.20;;;;;;;11.12;100.00;100144.31;5051741;28;20489;-46
2022/09/16 05:59:00;;;;;;;12.67;11.60;;;;;;;11.20;100.00;100148.59;5051221;28;20435;-46
2022/09/16 06:01:29;;;;;;;13.60;12.40;;;;;;;11.82;100.00;100145.09;5051730;28;20458;-46
2022/09/16 06:03:58;;;;;;;13.33;12.27;;;;;;;12.28;100.00;100142.78;5051523;28;20845;-46
2022/09/16 06:06:28;;;;;;;14.73;11.63;;;;;;;12.49;100.00;100146.84;5051705;28;20426;-50
2022/09/16 06:08:58;;;;;;;13.30;11.93;;;;;;;12.52;100.00;100143.75;5051143;28;20475;-49
2022/09/16 06:11:27;;;;;;;17.33;10.43;;;;;;;12.48;100.00;100137.22;5051480;28;20459;-54
2022/09/16 06:13:57;;;;;;;10.10;9.50;;;;;;;12.54;100.00;100139.81;5051745;28;20434;-54
2022/09/16 06:16:26;;;;;;;10.30;9.50;;;;;;;12.61;100.00;100139.72;5051684;28;20485;-52
2022/09/16 06:18:54;;;;;;;10.00;9.43;;;;;;;12.71;100.00;100138.16;5050951;28;20431;-53
2022/09/16 06:21:22;;;;;;;9.43;8.93;;;;;;;12.81;97.49;100132.28;5051489;28;20451;-53
2022/09/16 06:23:52;;;;;;;9.90;9.10;;;;;;;12.75;95.55;100133.97;5051154;28;20475;-53
2022/09/16 06:26:21;;;;;;;10.10;9.20;;;;;;;12.77;95.11;100123.06;5051193;28;20435;-51
2022/09/16 06:28:50;;;;;;;10.30;9.33;;;;;;;13.02;96.06;100118.38;5051194;28;20804;-53
2022/09/16 06:31:19;;;;;;;9.70;8.90;;;;;;;13.42;94.58;100126.69;5052979;28;20863;-50
2022/09/16 06:33:49;;;;;;;10.67;9.60;;;;;;;13.54;93.58;100122.19;5055289;28;20861;-51
2022/09/16 06:36:18;;;;;;;9.63;9.03;;;;;;;13.86;91.18;100128.84;5055337;28;20428;-53
2022/09/16 06:38:47;;;;;;;11.30;10.20;;;;;;;14.72;92.16;100130.75;5055067;28;20936;-52
2022/09/16 06:41:17;;;;;;;11.17;10.40;;;;;;;15.21;87.14;100131.13;5054878;28;20439;-52
2022/09/16 06:43:45;;;;;;;9.17;8.27;;;;;;;15.02;81.78;100124.34;5055081;28;20467;-53
2022/09/16 06:46:16;;;;;;;9.00;8.40;;;;;;;14.88;83.55;100135.34;5055097;28;20928;-52
2022/09/16 06:48:46;;;;;;;8.13;7.43;;;;;;;14.62;85.69;100127.03;5055202;28;20439;-46
2022/09/16 06:51:15;;;;;;;8.67;6.53;;;;;;;13.94;90.28;100127.69;5054410;28;20471;-46
2022/09/16 06:53:44;;;;;;;11.27;7.33;;;;;;;13.60;94.27;100131.16;5051491;28;20494;-48
2022/09/16 06:56:13;;;;;;;10.57;6.70;;;;;;;13.09;98.28;100121.00;5055051;28;20430;-49
2022/09/16 06:58:46;;;;;;;6.10;5.60;;;;;;;12.84;100.00;100118.47;5054989;28;20435;-49
2022/09/16 07:01:16;;;;;;;9.63;6.33;;;;;;;12.81;100.00;100102.03;5054452;28;20504;-48
2022/09/16 07:03:46;;;;;;;11.00;6.67;;;;;;;12.92;100.00;100107.44;5054399;28;20816;-48
2022/09/16 07:06:15;;;;;;;7.43;6.10;;;;;;;12.98;100.00;100111.88;5054936;28;20446;-49
2022/09/16 07:08:43;;;;;;;7.80;7.07;;;;;;;13.09;100.00;100100.41;5055015;28;20434;-48
2022/09/16 07:11:13;;;;;;;7.67;6.97;;;;;;;13.21;100.00;100105.78;5054026;28;20463;-50
2022/09/16 07:13:42;;;;;;;10.13;7.87;;;;;;;13.51;100.00;100098.53;5054453;28;20428;-49
2022/09/16 07:16:11;;;;;;;7.37;6.83;;;;;;;13.85;100.00;100096.94;5054486;28;20489;-45
2022/09/16 07:18:41;;;;;;;11.63;7.10;;;;;;;13.90;100.00;100088.16;5054875;28;20806;-48
2022/09/16 07:21:11;;;;;;;13.90;7.60;;;;;;;14.02;100.00;100103.22;5053998;28;20471;-46
2022/09/16 07:23:40;;;;;;;6.93;5.23;;;;;;;14.07;100.00;100097.94;5054375;28;20492;-50
2022/09/16 07:26:10;;;;;;;10.20;6.50;;;;;;;14.29;100.00;100100.84;5054329;28;20475;-48
2022/09/16 07:28:39;;;;;;;8.77;6.07;;;;;;;14.47;98.91;100099.91;5054345;28;20435;-52
2022/09/16 07:31:10;;;;;;;9.10;7.20;;;;;;;14.70;99.34;100103.31;5054002;28;20525;-47
2022/09/16 07:33:39;;;;;;;11.00;6.53;;;;;;;15.16;93.94;100104.19;5054490;28;20824;-48
2022/09/16 07:36:08;;;;;;;10.20;6.47;;;;;;;15.66;91.57;100097.00;5054440;28;20442;-48
2022/09/16 07:38:36;;;;;;;9.67;5.80;;;;;;;15.94;90.21;100091.53;5054198;28;20435;-49
2022/09/16 07:41:05;;;;;;;7.47;5.60;;;;;;;15.97;86.79;100088.34;5053519;28;20466;-43
2022/09/16 07:43:33;;;;;;;5.37;4.87;;;;;;;15.94;84.66;100088.84;5052963;28;20532;-48
2022/09/16 07:46:01;;;;;;;6.17;4.90;;;;;;;16.14;84.87;100095.53;5054304;28;20471;-49
2022/09/16 07:48:31;;;;;;;4.83;4.40;;;;;;;16.02;83.92;100093.78;5053953;28;20471;-46
2022/09/16 07:51:04;;;;;;;5.63;5.10;;;;;;;15.92;81.47;100093.63;5053419;28;20487;-48
2022/09/16 07:53:33;;;;;;;8.10;5.37;;;;;;;16.44;84.72;100096.75;5053434;28;20497;-52
2022/09/16 07:56:02;;;;;;;9.40;5.87;;;;;;;16.60;80.35;100092.41;5053618;28;20496;-49
2022/09/16 07:58:30;;;;;;;7.63;4.80;;;;;;;16.54;78.63;100093.41;5053646;28;20442;-51
2022/09/16 08:00:58;;;;;;;9.07;5.00;;;;;;;16.31;79.03;100091.75;5053073;28;20882;-48
2022/09/16 08:03:33;;;;;;;8.60;4.87;;;;;;;15.44;84.62;100114.91;5053500;28;20969;-48
2022/09/16 08:06:02;;;;;;;13.47;4.87;;;;;;;14.20;95.54;100119.16;5053640;28;20467;-48
2022/09/16 08:08:30;;;;;;;6.93;4.57;;;;;;;13.89;100.00;100113.38;5053402;28;20470;-53
2022/09/16 08:11:00;;;;;;;7.73;5.00;;;;;;;13.72;100.00;100113.22;5053140;28;20459;-44
2022/09/16 08:13:29;;;;;;;4.90;4.50;;;;;;;13.68;100.00;100104.81;5053539;28;20956;-48
2022/09/16 08:16:00;;;;;;;7.13;5.13;;;;;;;13.59;100.00;100097.38;5053517;28;20431;-46
2022/09/16 08:18:28;;;;;;;9.00;5.60;;;;;;;13.74;100.00;100103.91;5053465;28;20420;-48
2022/09/16 08:21:00;;;;;;;7.73;5.70;;;;;;;13.91;100.00;100095.16;5052542;28;20463;-49
2022/09/16 08:23:29;;;;;;;9.00;6.10;;;;;;;14.23;100.00;100094.56;5053436;28;20825;-49
2022/09/16 08:25:57;;;;;;;6.07;5.67;;;;;;;14.76;100.00;100094.31;5053305;28;20549;-46
2022/09/16 08:28:26;;;;;;;8.70;7.67;;;;;;;15.17;100.00;100092.41;5053746;28;20435;-43
2022/09/16 08:31:12;;;;;;;10.13;7.20;;;;;;;15.76;100.00;100088.28;5052512;28;20467;-43
2022/09/16 08:33:41;;;;;;;7.70;6.70;;;;;;;15.68;93.96;100075.25;5053175;28;20435;-54
2022/09/16 08:36:14;;;;;;;9.53;5.30;;;;;;;15.63;92.47;100078.66;5052988;28;20493;-45
2022/09/16 08:38:43;;;;;;;10.10;6.10;;;;;;;15.55;91.21;100071.03;5052990;28;20988;-45
2022/09/16 08:41:31;;;;;;;6.43;5.80;;;;;;;15.34;88.98;100071.72;5052455;28;20466;-44
2022/09/16 08:44:08;;;;;;;13.27;5.80;;;;;;;15.26;90.81;100067.56;5052983;28;20474;-44
2022/09/16 08:46:44;;;;;;;8.00;5.43;;;;;;;15.33;92.55;100048.59;5052935;28;21048;-45
2022/09/16 08:49:21;;;;;;;9.57;5.80;;;;;;;15.21;89.37;100058.59;5052507;28;20520;-42
2022/09/16 08:51:50;;;;;;;7.40;5.83;;;;;;;15.10;87.06;100060.31;5049459;28;20872;-52
2022/09/16 08:54:27;;;;;;;13.83;5.13;;;;;;;15.03;89.04;100064.19;5036032;28;21024;-44
2022/09/16 08:56:59;;;;;;;9.73;5.40;;;;;;;14.76;88.09;100064.78;5052927;28;20431;-45
2022/09/16 08:59:32;;;;;;;10.87;5.70;;;;;;;14.81;90.60;100075.63;5052163;28;20964;-45
2022/09/16 09:02:19;;;;;;;12.83;5.80;;;;;;;14.47;92.24;100084.63;5052369;28;21050;-45
2022/09/16 09:04:47;;;;;;;20.53;6.33;;;;;;;14.46;95.13;100079.47;5052465;28;20439;-49
2022/09/16 09:07:27;;;;;;;9.47;5.73;;;;;;;14.37;94.83;100081.72;5052364;28;21154;-46
2022/09/16 09:10:06;;;;;;;8.83;5.23;;;;;;;14.41;94.96;100077.53;5052093;28;20458;-43
2022/09/16 09:12:40;;;;;;;5.37;4.87;;;;;;;14.36;92.58;100074.75;5052239;28;20439;-45
2022/09/16 09:15:29;;;;;;;6.60;4.67;;;;;;;14.48;93.17;100080.06;5052324;28;20435;-48
2022/09/16 09:18:07;;;;;;;8.53;5.20;;;;;;;14.90;93.56;100068.00;5052524;28;20490;-48
2022/09/16 09:20:49;;;;;;;15.87;6.30;;;;;;;15.29;93.00;100069.75;5051709;28;20479;-45
2022/09/16 09:23:32;;;;;;;8.60;6.20;;;;;;;15.33;89.08;100068.22;5052093;28;20427;-46
2022/09/16 09:26:08;;;;;;;10.63;6.70;;;;;;;15.38;90.09;100056.75;5052176;28;20471;-46
2022/09/16 09:29:08;;;;;;;8.93;5.83;;;;;;;15.49;91.04;100045.13;5052233;28;20454;-49
2022/09/16 09:31:46;;;;;;;14.87;7.10;;;;;;;15.85;87.32;100036.53;5041182;28;20511;-52
2022/09/16 09:34:31;;;;;;;9.73;6.90;;;;;;;16.15;86.35;100038.81;5051998;28;20449;-50
2022/09/16 09:37:17;;;;;;;7.30;6.03;;;;;;;16.67;85.33;100041.88;5051775;28;20427;-46
2022/09/16 09:40:00;;;;;;;12.20;5.80;;;;;;;16.62;82.44;100038.31;5051554;28;20469;-49
2022/09/16 09:42:31;;;;;;;8.80;6.20;;;;;;;16.61;82.23;100034.00;5051643;28;20455;-47
2022/09/16 09:45:03;;;;;;;10.83;5.87;;;;;;;16.61;82.02;100032.09;5051922;28;20511;-49
2022/09/16 09:47:38;;;;;;;10.97;5.80;;;;;;;16.58;81.47;100024.53;5051873;28;20438;-46
2022/09/16 09:50:15;;;;;;;12.70;6.37;;;;;;;16.99;83.60;100023.09;5051030;28;20462;-46
2022/09/16 09:52:48;;;;;;;10.27;5.80;;;;;;;17.21;83.15;100018.41;5047899;28;20430;-46
2022/09/16 09:55:20;;;;;;;10.00;6.30;;;;;;;17.58;81.96;99997.69;5043779;28;20485;-46
2022/09/16 09:58:11;;;;;;;7.37;5.90;;;;;;;17.45;78.99;100005.38;5051803;28;20427;-48
2022/09/16 10:00:39;;;;;;;13.43;5.97;;;;;;;16.60;82.23;100025.13;5051124;28;20524;-44
2022/09/16 10:03:11;;;;;;;6.33;3.73;;;;;;;16.09;86.22;100022.84;5051305;28;20438;-52
2022/09/16 10:05:40;;;;;;;6.30;3.57;;;;;;;15.54;87.97;100017.50;5050760;28;20517;-43
2022/09/16 10:08:16;;;;;;;4.30;4.00;;;;;;;15.45;89.71;100017.09;5051901;28;20434;-50
2022/09/16 10:10:50;;;;;;;6.63;4.50;;;;;;;15.50;91.04;100007.25;5050987;28;20478;-45
2022/09/16 10:13:18;;;;;;;5.20;3.87;;;;;;;15.58;91.62;100021.34;5051380;28;20493;-43
2022/09/16 10:15:47;;;;;;;5.90;4.30;;;;;;;15.32;91.59;100028.97;5051368;28;21003;-45
2022/09/16 10:18:25;;;;;;;6.60;4.90;;;;;;;15.18;96.23;100027.69;5051674;28;20455;-49
2022/09/16 10:21:00;;;;;;;7.43;4.93;;;;;;;14.98;100.00;100021.97;5050879;28;20467;-45
2022/09/16 10:23:28;;;;;;;9.67;4.73;;;;;;;15.00;100.00;100009.09;5051309;28;20843;-45
2022/09/16 10:26:18;;;;;;;8.70;4.10;;;;;;;15.33;100.00;100017.19;5051240;28;20506;-43
2022/09/16 10:28:57;;;;;;;10.80;5.77;;;;;;;15.55;100.00;100011.91;5051411;28;20932;-45
2022/09/16 10:31:28;;;;;;;7.40;5.20;;;;;;;15.59;100.00;99990.72;5051205;28;20497;-44
2022/09/16 10:34:02;;;;;;;6.07;5.17;;;;;;;15.74;100.00;99985.56;5051123;28;20427;-46
2022/09/16 10:36:33;;;;;;;8.20;4.33;;;;;;;15.88;100.00;99984.97;5051443;28;20423;-51
2022/09/16 10:39:02;;;;;;;4.10;3.90;;;;;;;15.54;97.32;99999.53;5051022;28;20431;-45
2022/09/16 10:41:41;;;;;;;5.47;3.87;;;;;;;15.28;97.51;99995.63;5051342;28;20458;-48
2022/09/16 10:44:15;;;;;;;7.93;4.40;;;;;;;15.48;97.49;99982.50;5051054;28;20434;-49
2022/09/16 10:46:51;;;;;;;4.90;4.50;;;;;;;15.68;96.09;99970.44;5050945;28;20867;-49
2022/09/16 10:49:22;;;;;;;4.70;4.33;;;;;;;15.96;96.14;99971.06;5050867;28;20512;-47
2022/09/16 10:51:50;;;;;;;6.00;4.70;;;;;;;16.33;97.79;99970.44;5047696;28;20448;-45
2022/09/16 10:54:27;;;;;;;5.23;4.73;;;;;;;16.51;95.26;99962.81;5050933;28;20802;-43
2022/09/16 10:56:56;;;;;;;7.93;5.37;;;;;;;16.46;93.71;99959.25;5051210;28;20427;-46
2022/09/16 10:59:23;;;;;;;8.57;5.73;;;;;;;16.54;92.00;99940.81;5050580;28;20463;-47
2022/09/16 11:02:00;;;;;;;13.07;6.07;;;;;;;16.76;92.43;99956.88;5051000;28;20581;-46
2022/09/16 11:04:53;;;;;;;10.77;5.50;;;;;;;17.09;89.13;99950.41;5050861;28;20435;-48
2022/09/16 11:07:44;;;;;;;7.13;5.10;;;;;;;16.84;90.29;99945.66;5050886;28;20593;-48
2022/09/16 11:10:22;;;;;;;9.17;4.80;;;;;;;16.78;90.78;99941.31;5047019;28;20454;-44
2022/09/16 11:13:24;;;;;;;7.03;5.17;;;;;;;16.98;92.11;99937.94;5050764;28;20423;-45
2022/09/16 11:16:11;;;;;;;10.53;5.20;;;;;;;17.22;88.29;99930.31;5051337;28;20430;-51
2022/09/16 11:18:56;;;;;;;10.13;6.50;;;;;;;17.37;86.96;99942.00;5054464;28;20431;-51
2022/09/16 11:21:42;;;;;;;13.27;5.23;;;;;;;17.16;83.58;99932.16;5054345;28;20494;-51
2022/09/16 11:24:39;;;;;;;8.83;5.23;;;;;;;17.04;82.99;99931.53;5054191;28;20935;-51
2022/09/16 11:27:16;;;;;;;10.97;5.27;;;;;;;16.88;85.48;99932.47;5054329;28;20466;-48
2022/09/16 11:30:03;;;;;;;7.67;4.30;;;;;;;16.71;88.75;99926.41;5050903;28;20578;-48
2022/09/16 11:32:46;;;;;;;5.07;3.77;;;;;;;16.73;92.04;99921.56;5049553;28;20516;-51
2022/09/16 11:35:31;;;;;;;12.83;4.70;;;;;;;16.91;90.57;99929.25;5053090;28;20529;-51
2022/09/16 11:38:07;;;;;;;7.83;4.60;;;;;;;16.91;91.88;99911.22;5053795;28;20435;-50
2022/09/16 11:40:46;;;;;;;9.43;5.50;;;;;;;17.04;92.61;99918.88;5053379;28;20458;-48
2022/09/16 11:43:38;;;;;;;11.03;6.00;;;;;;;17.19;91.47;99910.09;5054092;28;20549;-50